createdAt,value
2019-01-27T00:02:06.712Z,94762.10
2019-01-27T00:04:37.965Z,94755.38
2019-01-27T00:07:27.729Z,94754.77
2019-01-27T00:10:10.243Z,94751.90
2019-01-27T00:13:00.308Z,94745.52
2019-01-27T00:15:50.128Z,94753.81
2019-01-27T00:18:32.670Z,94739.72
2019-01-27T00:21:22.623Z,94755.77
2019-01-27T00:24:12.527Z,94718.58
2019-01-27T00:27:02.476Z,94731.58
2019-01-27T00:29:52.287Z,94720.64
2019-01-27T00:32:42.243Z,94714.66
2019-01-27T00:35:32.023Z,94711.61
2019-01-27T00:38:21.877Z,94703.53
2019-01-27T00:41:04.730Z,94699.71
2019-01-27T00:43:54.532Z,94677.93
2019-01-27T00:49:49.534Z,94688.41
2019-01-27T00:52:31.684Z,94678.56
2019-01-27T00:58:27.376Z,94672.76
2019-01-27T01:01:09.969Z,94660.86
2019-01-27T01:03:59.736Z,94660.44
2019-01-27T01:06:42.479Z,94658.14
2019-01-27T01:09:32.599Z,94655.66
2019-01-27T01:12:16.555Z,94654.70
2019-01-27T01:15:07.243Z,94650.48
2019-01-27T01:17:53.418Z,94652.39
2019-01-27T01:20:43.227Z,94655.89
2019-01-27T01:23:26.133Z,94651.65
2019-01-27T01:26:15.915Z,94647.25
2019-01-27T01:28:59.026Z,94654.16
2019-01-27T01:31:48.837Z,94642.83
2019-01-27T01:34:33.491Z,94643.18
2019-01-27T01:37:23.246Z,94631.81
2019-01-27T01:40:06.089Z,94631.22
2019-01-27T01:42:55.853Z,94627.36
2019-01-27T01:45:38.275Z,94624.07
2019-01-27T01:51:31.009Z,94610.17
2019-01-27T01:54:20.821Z,94613.03
2019-01-27T01:57:03.641Z,94601.89
2019-01-27T01:59:54.373Z,94600.33
2019-01-27T02:02:37.858Z,94574.30
2019-01-27T02:05:27.711Z,94597.97
2019-01-27T02:08:17.459Z,94587.38
2019-01-27T02:11:07.307Z,94582.22
2019-01-27T02:13:57.151Z,94577.41
2019-01-27T02:16:46.959Z,94563.77
2019-01-27T02:22:42.345Z,94540.11
2019-01-27T02:25:24.857Z,94524.89
2019-01-27T02:28:14.748Z,94538.61
2019-01-27T02:31:04.455Z,94531.50
2019-01-27T02:33:46.983Z,94511.59
2019-01-27T02:36:36.697Z,94523.01
2019-01-27T02:39:19.137Z,94526.69
2019-01-27T02:42:09.105Z,94509.41
2019-01-27T02:44:58.871Z,94511.55
2019-01-27T02:47:48.676Z,94510.44
2019-01-27T02:50:39.243Z,94504.30
2019-01-27T02:53:29.053Z,94508.95
2019-01-27T02:56:19.011Z,94513.60
2019-01-27T02:59:08.854Z,94497.08
2019-01-27T03:01:58.725Z,94498.05
2019-01-27T03:07:37.715Z,94485.77
2019-01-27T03:10:27.412Z,94490.77
2019-01-27T03:13:11.417Z,94476.16
2019-01-27T03:16:01.251Z,94473.87
2019-01-27T03:18:43.575Z,94460.20
2019-01-27T03:21:33.343Z,94452.87
2019-01-27T03:24:16.326Z,94447.11
2019-01-27T03:27:06.097Z,94451.16
2019-01-27T03:29:48.393Z,94413.45
2019-01-27T03:32:38.112Z,94421.50
2019-01-27T03:38:24.241Z,94404.59
2019-01-27T03:41:13.942Z,94403.23
2019-01-27T03:43:56.098Z,94399.58
2019-01-27T03:46:45.820Z,94400.72
2019-01-27T03:49:28.332Z,94397.84
2019-01-27T03:52:18.063Z,94386.69
2019-01-27T03:55:00.243Z,94381.50
2019-01-27T03:57:50.130Z,94370.91
2019-01-27T04:00:33.001Z,94359.17
2019-01-27T04:03:22.702Z,94352.42
2019-01-27T04:06:05.161Z,94365.92
2019-01-27T04:08:54.906Z,94363.23
2019-01-27T04:11:37.061Z,94355.93
2019-01-27T04:14:26.814Z,94361.11
2019-01-27T04:17:09.116Z,94354.39
2019-01-27T04:19:58.873Z,94337.08
2019-01-27T04:22:41.289Z,94354.39
2019-01-27T04:25:31.030Z,94347.69
2019-01-27T04:28:13.710Z,94343.45
2019-01-27T04:31:03.442Z,94339.41
2019-01-27T04:33:45.938Z,94314.78
2019-01-27T04:36:35.668Z,94330.16
2019-01-27T04:39:18.000Z,94314.23
2019-01-27T04:42:07.768Z,94308.84
2019-01-27T04:48:01.172Z,94293.86
2019-01-27T04:50:43.474Z,94296.53
2019-01-27T04:53:33.780Z,94295.97
2019-01-27T04:56:23.824Z,94288.08
2019-01-27T04:59:13.558Z,94280.41
2019-01-27T05:02:03.278Z,94255.02
2019-01-27T05:04:53.034Z,94283.67
2019-01-27T05:07:35.173Z,94265.59
2019-01-27T05:10:24.924Z,94269.24
2019-01-27T05:18:55.288Z,94259.08
2019-01-27T05:21:45.836Z,94247.91
2019-01-27T05:24:35.558Z,94234.66
2019-01-27T05:27:18.945Z,94230.81
2019-01-27T05:30:12.499Z,94224.84
2019-01-27T05:32:55.290Z,94221.59
2019-01-27T05:35:45.017Z,94206.03
2019-01-27T05:38:27.277Z,94220.63
2019-01-27T05:41:17.017Z,94211.02
2019-01-27T05:43:59.652Z,94198.33
2019-01-27T05:46:49.458Z,94201.22
2019-01-27T05:52:42.884Z,94186.61
2019-01-27T05:55:25.405Z,94191.41
2019-01-27T05:58:15.202Z,94185.48
2019-01-27T06:01:05.099Z,94183.73
2019-01-27T06:03:54.931Z,94191.98
2019-01-27T06:06:44.883Z,94176.22
2019-01-27T06:09:34.797Z,94171.22
2019-01-27T06:12:24.629Z,94157.19
2019-01-27T06:15:35.842Z,94121.27
2019-01-27T06:18:25.570Z,94154.84
2019-01-27T06:21:15.055Z,94173.89
2019-01-27T06:23:57.759Z,94175.44
2019-01-27T06:26:47.563Z,94173.14
2019-01-27T06:29:37.405Z,94181.41
2019-01-27T06:35:39.895Z,94194.27
2019-01-27T06:38:29.675Z,94192.18
2019-01-27T06:41:12.730Z,94184.85
2019-01-27T06:44:02.685Z,94194.28
2019-01-27T06:46:45.381Z,94193.13
2019-01-27T06:49:35.548Z,94199.10
2019-01-27T06:52:25.306Z,94198.91
2019-01-27T06:55:15.992Z,94193.92
2019-01-27T06:58:06.171Z,94211.97
2019-01-27T07:00:55.762Z,94203.53
2019-01-27T07:03:53.586Z,94200.08
2019-01-27T07:06:54.988Z,94202.77
2019-01-27T07:10:03.872Z,94189.88
2019-01-27T07:13:12.511Z,94197.56
2019-01-27T07:16:21.072Z,94187.75
2019-01-27T07:19:29.687Z,94180.66
2019-01-27T07:22:40.407Z,94170.47
2019-01-27T07:28:51.323Z,94160.86
2019-01-27T07:32:00.264Z,94142.81
2019-01-27T07:34:52.084Z,94133.97
2019-01-27T07:37:45.724Z,94128.05
2019-01-27T07:40:46.894Z,94119.80
2019-01-27T07:43:55.514Z,94114.97
2019-01-27T07:46:56.350Z,94114.61
2019-01-27T07:50:05.022Z,94107.50
2019-01-27T07:53:14.465Z,94092.92
2019-01-27T07:56:24.080Z,94084.84
2019-01-27T07:59:32.691Z,94073.70
2019-01-27T08:02:41.278Z,94063.91
2019-01-27T08:05:42.772Z,94063.91
2019-01-27T08:08:36.669Z,94072.92
2019-01-27T08:11:45.198Z,94076.59
2019-01-27T08:14:53.806Z,94054.88
2019-01-27T08:17:55.588Z,94056.95
2019-01-27T08:21:04.200Z,94048.51
2019-01-27T08:24:05.118Z,94058.30
2019-01-27T08:27:06.078Z,94047.87
2019-01-27T08:30:33.829Z,94052.65
2019-01-27T08:33:23.286Z,94046.61
2019-01-27T08:36:31.870Z,94034.84
2019-01-27T08:39:33.536Z,94017.89
2019-01-27T08:42:43.378Z,94023.27
2019-01-27T08:45:44.847Z,94015.39
2019-01-27T08:48:34.649Z,94013.25
2019-01-27T08:51:17.079Z,94012.44
2019-01-27T08:54:06.940Z,94028.94
2019-01-27T08:56:49.382Z,94020.52
2019-01-27T08:59:39.138Z,94020.52
2019-01-27T09:06:00.923Z,94011.65
2019-01-27T09:09:02.175Z,93991.80
2019-01-27T09:12:10.815Z,93990.96
2019-01-27T09:15:12.546Z,93980.80
2019-01-27T09:18:21.133Z,94002.06
2019-01-27T09:21:29.854Z,93993.23
2019-01-27T09:24:30.901Z,93988.23
2019-01-27T09:27:34.889Z,93980.63
2019-01-27T09:30:36.785Z,93980.13
2019-01-27T09:33:45.380Z,93979.44
2019-01-27T09:39:44.429Z,93952.55
2019-01-27T09:42:52.971Z,93951.92
2019-01-27T09:46:05.184Z,93933.95
2019-01-27T09:49:04.185Z,93912.30
2019-01-27T09:52:05.400Z,93947.55
2019-01-27T09:55:13.976Z,93957.53
2019-01-27T09:58:07.347Z,93962.27
2019-01-27T10:01:15.911Z,93960.14
2019-01-27T10:04:17.178Z,93960.86
2019-01-27T10:07:25.751Z,93963.17
2019-01-27T10:10:27.084Z,93955.66
2019-01-27T10:13:35.648Z,93966.25
2019-01-27T10:16:37.212Z,93952.87
2019-01-27T10:19:43.835Z,93958.55
2019-01-27T10:22:36.259Z,93951.52
2019-01-27T10:25:34.265Z,93951.86
2019-01-27T10:28:35.518Z,93932.38
2019-01-27T10:31:44.098Z,93943.66
2019-01-27T10:34:46.289Z,93939.02
2019-01-27T10:37:38.329Z,93931.30
2019-01-27T10:40:30.199Z,93932.81
2019-01-27T10:43:38.811Z,93927.14
2019-01-27T10:46:47.612Z,93931.16
2019-01-27T10:49:56.247Z,93922.00
2019-01-27T10:52:57.901Z,93910.88
2019-01-27T10:56:06.453Z,93908.14
2019-01-27T10:59:09.082Z,93905.36
2019-01-27T11:02:10.420Z,93889.13
2019-01-27T11:05:19.026Z,93862.67
2019-01-27T11:08:08.989Z,93876.94
2019-01-27T11:11:06.180Z,93865.31
2019-01-27T11:14:07.835Z,93869.45
2019-01-27T11:17:16.372Z,93868.59
2019-01-27T11:20:17.790Z,93867.92
2019-01-27T11:23:26.384Z,93832.80
2019-01-27T11:26:22.495Z,93847.06
2019-01-27T11:29:31.095Z,93848.11
2019-01-27T11:32:31.898Z,93823.48
2019-01-27T11:35:40.469Z,93848.81
2019-01-27T11:38:43.327Z,93838.73
2019-01-27T11:41:52.196Z,93816.88
2019-01-27T11:44:59.485Z,93819.70
2019-01-27T11:54:14.417Z,93824.41
2019-01-27T11:59:56.529Z,93823.16
2019-01-27T12:02:46.871Z,93845.42
2019-01-27T12:08:33.564Z,93832.45
2019-01-27T12:11:23.368Z,93826.75
2019-01-27T12:14:06.488Z,93811.31
2019-01-27T12:16:57.427Z,93804.73
2019-01-27T12:19:40.392Z,93809.42
2019-01-27T12:22:31.034Z,93787.91
2019-01-27T12:25:21.744Z,93789.58
2019-01-27T12:28:03.868Z,93774.67
2019-01-27T12:30:53.738Z,93782.69
2019-01-27T12:33:38.006Z,93777.28
2019-01-27T12:36:27.984Z,93772.98
2019-01-27T12:39:29.480Z,93782.16
2019-01-27T12:42:12.415Z,93752.28
2019-01-27T12:45:02.603Z,93762.55
2019-01-27T12:47:46.967Z,93765.67
2019-01-27T12:50:36.787Z,93751.22
2019-01-27T12:53:19.152Z,93765.83
2019-01-27T12:56:09.248Z,93756.59
2019-01-27T12:58:59.127Z,93736.65
2019-01-27T13:01:49.001Z,93739.38
2019-01-27T13:04:38.802Z,93728.70
2019-01-27T13:07:28.553Z,93721.77
2019-01-27T13:10:12.326Z,93723.64
2019-01-27T13:13:02.433Z,93729.47
2019-01-27T13:15:52.232Z,93721.19
2019-01-27T13:18:42.692Z,93709.92
2019-01-27T13:21:32.522Z,93727.84
2019-01-27T13:24:22.356Z,93728.36
2019-01-27T13:27:12.140Z,93724.81
2019-01-27T13:30:02.664Z,93708.89
2019-01-27T13:38:51.137Z,93694.36
2019-01-27T13:47:58.834Z,93692.66
2019-01-27T13:50:40.817Z,93690.38
2019-01-27T13:53:30.619Z,93695.87
2019-01-27T13:56:20.249Z,93688.59
2019-01-27T14:02:16.015Z,93676.98
2019-01-27T14:05:00.555Z,93694.84
2019-01-27T14:07:43.041Z,93673.55
2019-01-27T14:10:33.272Z,93693.67
2019-01-27T14:13:23.135Z,93683.86
2019-01-27T14:16:13.293Z,93666.34
2019-01-27T14:19:03.107Z,93660.92
2019-01-27T14:21:52.940Z,93673.78
2019-01-27T14:24:43.071Z,93679.46
2019-01-27T14:27:25.611Z,93679.69
2019-01-27T14:30:35.731Z,93670.14
2019-01-27T14:36:38.667Z,93674.13
2019-01-27T14:39:22.821Z,93674.05
2019-01-27T14:42:12.671Z,93668.63
2019-01-27T14:45:02.703Z,93661.61
2019-01-27T14:47:52.555Z,93663.11
2019-01-27T14:51:01.741Z,93645.44
2019-01-27T14:54:04.160Z,93651.96
2019-01-27T14:56:48.247Z,93641.20
2019-01-27T14:59:31.383Z,93648.08
2019-01-27T15:02:21.187Z,93639.19
2019-01-27T15:05:12.281Z,93620.39
2019-01-27T15:08:02.016Z,93627.86
2019-01-27T15:10:44.921Z,93621.09
2019-01-27T15:13:35.567Z,93621.34
2019-01-27T15:16:18.183Z,93624.45
2019-01-27T15:19:07.933Z,93623.20
2019-01-27T15:21:54.379Z,93604.59
2019-01-27T15:24:25.140Z,93616.26
2019-01-27T15:27:15.099Z,93613.48
2019-01-27T15:30:25.516Z,93626.75
2019-01-27T15:33:11.761Z,93604.34
2019-01-27T15:35:54.555Z,93593.19
2019-01-27T15:41:40.674Z,93569.87
2019-01-27T15:44:11.693Z,93579.67
2019-01-27T15:47:01.478Z,93586.50
2019-01-27T15:49:45.135Z,93589.03
2019-01-27T15:52:28.301Z,93587.94
2019-01-27T15:58:32.702Z,93578.13
2019-01-27T16:01:22.522Z,93578.81
2019-01-27T16:07:16.670Z,93581.51
2019-01-27T16:15:35.626Z,93573.91
2019-01-27T16:18:25.449Z,93583.00
2019-01-27T16:21:07.861Z,93577.69
2019-01-27T16:27:03.727Z,93578.84
2019-01-27T16:30:12.426Z,93571.39
2019-01-27T16:36:04.417Z,93559.39
2019-01-27T16:38:48.432Z,93540.08
2019-01-27T16:41:30.837Z,93553.20
2019-01-27T16:44:15.145Z,93570.77
2019-01-27T16:47:18.908Z,93582.86
2019-01-27T16:50:01.668Z,93569.21
2019-01-27T16:53:10.868Z,93589.19
2019-01-27T16:56:02.556Z,93570.13
2019-01-27T16:58:52.958Z,93569.12
2019-01-27T17:01:35.494Z,93596.22
2019-01-27T17:04:25.344Z,93597.50
2019-01-27T17:07:15.220Z,93577.70
2019-01-27T17:10:06.188Z,93603.22
2019-01-27T17:12:53.207Z,93618.76
2019-01-27T17:15:36.200Z,93625.91
2019-01-27T17:21:50.560Z,93617.72
2019-01-27T17:24:32.883Z,93622.48
2019-01-27T17:30:19.968Z,93640.02
2019-01-27T17:33:09.809Z,93630.83
2019-01-27T17:35:52.035Z,93635.32
2019-01-27T17:38:42.201Z,93648.85
2019-01-27T17:41:31.948Z,93662.80
2019-01-27T17:44:15.018Z,93676.41
2019-01-27T17:47:17.726Z,93684.11
2019-01-27T17:50:01.222Z,93682.22
2019-01-27T17:52:51.334Z,93664.44
2019-01-27T17:55:40.416Z,93661.91
2019-01-27T17:58:54.218Z,93698.16
2019-01-27T18:01:52.155Z,93700.73
2019-01-27T18:05:00.722Z,93714.03
2019-01-27T18:08:01.629Z,93714.45
2019-01-27T18:14:15.754Z,93707.90
2019-01-27T18:17:06.076Z,93714.69
2019-01-27T18:19:56.035Z,93691.73
2019-01-27T18:22:46.293Z,93709.64
2019-01-27T18:28:33.903Z,93704.90
2019-01-27T18:31:24.046Z,93701.09
2019-01-27T18:34:06.415Z,93707.06
2019-01-27T18:36:56.188Z,93707.10
2019-01-27T18:39:38.866Z,93719.92
2019-01-27T18:42:28.629Z,93714.92
2019-01-27T18:45:12.657Z,93709.77
2019-01-27T18:48:02.538Z,93711.18
2019-01-27T18:50:45.095Z,93727.81
2019-01-27T18:53:53.686Z,93730.94
2019-01-27T18:56:54.927Z,93723.53
2019-01-27T19:00:03.763Z,93727.58
2019-01-27T19:03:05.362Z,93734.81
2019-01-27T19:06:13.973Z,93718.82
2019-01-27T19:09:15.285Z,93742.36
2019-01-27T19:12:24.401Z,93738.73
2019-01-27T19:15:27.435Z,93739.86
2019-01-27T19:18:35.973Z,93743.13
2019-01-27T19:21:37.152Z,93748.02
2019-01-27T19:24:45.682Z,93747.41
2019-01-27T19:27:47.064Z,93762.91
2019-01-27T19:30:39.376Z,93767.88
2019-01-27T19:33:50.165Z,93772.76
2019-01-27T19:36:51.763Z,93771.41
2019-01-27T19:40:00.637Z,93788.60
2019-01-27T19:43:10.174Z,93790.17
2019-01-27T19:46:20.179Z,93790.17
2019-01-27T19:49:29.099Z,93783.17
2019-01-27T19:52:37.775Z,93797.33
2019-01-27T19:55:30.879Z,93807.75
2019-01-27T19:58:39.545Z,93813.38
2019-01-27T20:01:40.251Z,93816.11
2019-01-27T20:04:43.991Z,93830.21
2019-01-27T20:07:45.703Z,93838.65
2019-01-27T20:10:47.646Z,93839.45
2019-01-27T20:13:52.620Z,93848.40
2019-01-27T20:17:02.864Z,93859.41
2019-01-27T20:20:04.655Z,93868.84
2019-01-27T20:23:05.939Z,93871.73
2019-01-27T20:25:47.777Z,93847.94
2019-01-27T20:28:56.401Z,93884.85
2019-01-27T20:34:57.367Z,93884.70
2019-01-27T20:37:58.584Z,93896.07
2019-01-27T20:41:07.511Z,93893.03
2019-01-27T20:44:16.168Z,93901.52
2019-01-27T20:47:24.769Z,93898.84
2019-01-27T20:50:52.620Z,93889.92
2019-01-27T20:53:51.357Z,93909.28
2019-01-27T20:57:00.048Z,93898.16
2019-01-27T20:59:56.653Z,93936.38
2019-01-27T21:03:05.314Z,93937.60
2019-01-27T21:05:54.843Z,93949.52
2019-01-27T21:08:56.309Z,93963.18
2019-01-27T21:12:04.906Z,93948.86
2019-01-27T21:15:06.512Z,93983.62
2019-01-27T21:18:15.085Z,93987.49
2019-01-27T21:20:57.280Z,93998.63
2019-01-27T21:23:47.050Z,94011.36
2019-01-27T21:26:29.347Z,94013.88
2019-01-27T21:29:19.096Z,94026.96
2019-01-27T21:32:02.082Z,94028.70
2019-01-27T21:34:51.842Z,94037.35
2019-01-27T21:37:41.603Z,94018.95
2019-01-27T21:40:23.661Z,94049.28
2019-01-27T21:43:13.496Z,94058.34
2019-01-27T21:45:56.340Z,94042.05
2019-01-27T21:48:46.198Z,94064.30
2019-01-27T21:51:36.014Z,94082.55
2019-01-27T21:54:26.224Z,94084.86
2019-01-27T21:57:16.128Z,94094.44
2019-01-27T22:00:09.038Z,94106.51
2019-01-27T22:03:11.898Z,94125.11
2019-01-27T22:06:13.068Z,94140.98
2019-01-27T22:08:55.468Z,94119.09
2019-01-27T22:14:32.968Z,94145.21
2019-01-27T22:17:22.752Z,94164.17
2019-01-27T22:20:05.899Z,94177.76
2019-01-27T22:22:55.680Z,94157.72
2019-01-27T22:25:38.467Z,94186.36
2019-01-27T22:28:28.270Z,94200.30
2019-01-27T22:31:18.086Z,94205.24
2019-01-27T22:34:07.964Z,94214.58
2019-01-27T22:39:59.357Z,94209.89
2019-01-27T22:42:30.168Z,94233.53
2019-01-27T22:45:22.908Z,94237.56
2019-01-27T22:48:05.011Z,94247.55
2019-01-27T22:50:54.835Z,94234.88
2019-01-27T22:53:44.634Z,94247.37
2019-01-27T22:56:34.430Z,94256.02
2019-01-27T22:59:24.259Z,94244.05
2019-01-27T23:02:27.132Z,94272.86
2019-01-27T23:05:11.267Z,94265.98
2019-01-27T23:08:01.365Z,94271.94
2019-01-27T23:10:44.069Z,94280.95
2019-01-27T23:13:33.927Z,94285.60
2019-01-27T23:16:16.771Z,94288.64
2019-01-27T23:19:06.709Z,94292.31
2019-01-27T23:21:50.835Z,94306.30
2019-01-27T23:24:21.533Z,94308.80
2019-01-27T23:27:11.337Z,94308.98
2019-01-27T23:29:58.127Z,94315.69
2019-01-27T23:32:40.965Z,94334.47
2019-01-27T23:35:30.955Z,94314.27
2019-01-27T23:38:20.789Z,94328.93
2019-01-27T23:44:07.315Z,94335.35
2019-01-27T23:46:57.446Z,94330.47
2019-01-27T23:49:40.019Z,94337.98
2019-01-27T23:52:29.805Z,94342.23
2019-01-27T23:58:14.124Z,94313.94
